Time;durP1;ratioP1;P1;durP2;ratioP2;P2;SDS_P1;SDS_P2;PMS_P1;PMS_P2;Temp;Humidity;BMP_temperature;BMP_pressure;BME280_temperature;BME280_humidity;BME280_pressure;Samples;Min_cycle;Max_cycle;Signal;HPM_P1;HPM_P2
2022/08/23 00:02:01;;;;;;;11.25;7.53;;;;;;;-148.33;100.00;65374.31;5010029;28;20042;-67
2022/08/23 00:04:35;;;;;;;10.23;7.00;;;;;;;-148.33;100.00;65374.31;5009393;28;21011;-68
2022/08/23 00:07:05;;;;;;;9.60;6.80;;;;;;;-148.33;100.00;65374.31;5009856;28;20046;-67
2022/08/23 00:09:32;;;;;;;11.23;7.10;;;;;;;-148.33;100.00;65374.31;5010724;28;20805;-68
2022/08/23 00:12:10;;;;;;;10.63;6.90;;;;;;;-148.33;100.00;65374.31;5010867;28;20037;-66
2022/08/23 00:14:41;;;;;;;11.05;6.85;;;;;;;-148.33;100.00;65374.31;5010857;28;20044;-68
2022/08/23 00:17:11;;;;;;;11.95;7.22;;;;;;;-148.33;100.00;65374.31;5010796;28;20046;-66
2022/08/23 00:19:58;;;;;;;10.50;6.57;;;;;;;-148.33;100.00;65374.31;5008744;28;20608;-65
2022/08/23 00:22:25;;;;;;;11.52;7.05;;;;;;;-148.33;100.00;65374.31;5008988;28;20054;-69
2022/08/23 00:24:51;;;;;;;9.93;6.82;;;;;;;-148.33;100.00;65374.31;5010521;28;20373;-67
2022/08/23 00:27:18;;;;;;;9.48;6.97;;;;;;;-148.33;100.00;65374.31;5010253;28;20037;-67
2022/08/23 00:29:51;;;;;;;10.15;6.90;;;;;;;-148.33;100.00;65374.31;5010535;28;20446;-65
2022/08/23 00:32:33;;;;;;;11.10;7.27;;;;;;;-148.33;100.00;65374.31;5009915;28;20045;-70
2022/08/23 00:35:01;;;;;;;10.23;7.35;;;;;;;-148.33;100.00;65374.31;5009880;28;20052;-66
2022/08/23 00:37:30;;;;;;;11.80;7.40;;;;;;;-148.33;100.00;65374.31;5008923;28;20103;-67
2022/08/23 00:39:58;;;;;;;10.63;7.22;;;;;;;-148.33;100.00;65374.31;5009008;28;20046;-66
2022/08/23 00:48:15;;;;;;;10.00;7.28;;;;;;;-148.33;100.00;65374.31;5009673;28;20054;-68
2022/08/23 00:51:04;;;;;;;10.45;7.40;;;;;;;-148.33;100.00;65374.31;5010157;28;20045;-68
2022/08/23 00:53:36;;;;;;;11.65;7.40;;;;;;;-148.33;100.00;65374.31;5009765;28;20056;-66
2022/08/23 00:56:11;;;;;;;9.60;7.25;;;;;;;-148.33;100.00;65374.31;5009879;28;20048;-67
2022/08/23 00:58:38;;;;;;;9.33;7.07;;;;;;;-148.33;100.00;65374.31;5009162;28;20799;-67
2022/08/23 01:01:05;;;;;;;11.07;7.93;;;;;;;-148.33;100.00;65374.31;5009660;28;20046;-68
2022/08/23 01:03:34;;;;;;;10.50;7.40;;;;;;;-148.33;100.00;65374.31;5009549;28;20966;-67
2022/08/23 01:06:18;;;;;;;10.02;7.15;;;;;;;-148.33;100.00;65374.31;5009906;28;20056;-65
2022/08/23 01:08:51;;;;;;;10.13;7.07;;;;;;;-148.33;100.00;65374.31;5009159;28;20406;-66
2022/08/23 01:11:25;;;;;;;12.87;8.40;;;;;;;-148.33;100.00;65374.31;5009594;28;20068;-69
2022/08/23 01:14:00;;;;;;;10.55;7.10;;;;;;;-148.33;100.00;65374.31;5009897;28;20479;-73
2022/08/23 01:16:34;;;;;;;9.88;7.22;;;;;;;-148.33;100.00;65374.31;5009628;28;20046;-66
2022/08/23 01:19:06;;;;;;;11.57;8.02;;;;;;;-148.33;100.00;65374.31;5009282;28;20119;-67
2022/08/23 01:21:44;;;;;;;10.93;7.70;;;;;;;-148.33;100.00;65374.31;5009516;28;20054;-66
2022/08/23 01:24:11;;;;;;;9.90;6.80;;;;;;;-148.33;100.00;65374.31;5009676;28;20046;-66
2022/08/23 01:26:59;;;;;;;9.93;7.13;;;;;;;-148.33;100.00;65374.31;4997592;28;21397;-66
2022/08/23 01:29:26;;;;;;;9.02;6.72;;;;;;;-148.33;100.00;65374.31;5007411;28;20046;-66
2022/08/23 01:31:52;;;;;;;9.30;6.90;;;;;;;-148.33;100.00;65374.31;5001564;28;20043;-67
2022/08/23 01:34:24;;;;;;;11.05;7.53;;;;;;;-148.33;100.00;65374.31;5008574;28;20064;-68
2022/08/23 01:36:51;;;;;;;10.53;7.10;;;;;;;-148.33;100.00;65374.31;5009576;28;20352;-65
2022/08/23 01:39:18;;;;;;;10.77;6.55;;;;;;;-148.33;100.00;65374.31;5008756;28;20052;-66
2022/08/23 01:41:45;;;;;;;9.45;6.57;;;;;;;-148.33;100.00;65374.31;5009442;28;20411;-70
2022/08/23 01:44:12;;;;;;;9.18;6.10;;;;;;;-148.33;100.00;65374.31;5008824;28;20037;-65
2022/08/23 01:46:42;;;;;;;10.55;7.05;;;;;;;-148.33;100.00;65374.31;5008561;28;20794;-66
2022/08/23 01:49:09;;;;;;;11.80;7.27;;;;;;;-148.33;100.00;65374.31;5008988;28;20042;-70
2022/08/23 01:51:36;;;;;;;9.93;7.00;;;;;;;-148.33;100.00;65374.31;5008845;28;20046;-69
2022/08/23 01:54:03;;;;;;;11.38;7.40;;;;;;;-148.33;100.00;65374.31;5008858;28;20040;-70
2022/08/23 01:56:31;;;;;;;11.77;7.25;;;;;;;-148.33;100.00;65374.31;5008815;28;20395;-66
2022/08/23 01:59:07;;;;;;;11.90;7.78;;;;;;;-148.33;100.00;65374.31;5008784;28;20042;-67
2022/08/23 02:01:34;;;;;;;11.53;8.50;;;;;;;-148.33;100.00;65374.31;5008600;28;20072;-68
2022/08/23 02:04:00;;;;;;;12.73;7.90;;;;;;;-148.33;100.00;65374.31;4998705;28;20527;-67
2022/08/23 02:06:31;;;;;;;11.05;7.57;;;;;;;-148.33;100.00;65374.31;5008451;28;20062;-68
2022/08/23 02:09:00;;;;;;;12.10;7.68;;;;;;;-148.33;100.00;65374.31;5008733;28;20042;-70
2022/08/23 02:11:38;;;;;;;10.30;6.88;;;;;;;-148.33;100.00;65374.31;5008418;28;20046;-67
2022/08/23 02:14:11;;;;;;;11.80;7.87;;;;;;;-148.33;100.00;65374.31;5008667;28;20042;-67
2022/08/23 02:16:43;;;;;;;11.10;7.07;;;;;;;-148.33;100.00;65374.31;5008182;28;20669;-69
2022/08/23 02:19:31;;;;;;;10.85;7.35;;;;;;;-148.33;100.00;65374.31;5008660;28;20046;-69
2022/08/23 02:21:58;;;;;;;10.85;7.00;;;;;;;-148.33;100.00;65374.31;5008603;28;20042;-66
2022/08/23 02:24:25;;;;;;;9.93;6.93;;;;;;;-148.33;100.00;65374.31;5008535;28;20054;-70
2022/08/23 02:26:55;;;;;;;10.77;7.10;;;;;;;-148.33;100.00;65374.31;5007696;28;20050;-67
2022/08/23 02:29:24;;;;;;;10.65;6.95;;;;;;;-148.33;100.00;65374.31;5008130;28;20045;-69
2022/08/23 02:31:51;;;;;;;10.25;6.90;;;;;;;-148.33;100.00;65374.31;5008874;28;20366;-66
2022/08/23 02:34:19;;;;;;;9.68;7.00;;;;;;;-148.33;100.00;65374.31;5007807;28;20044;-67
2022/08/23 02:36:46;;;;;;;11.90;6.70;;;;;;;-148.33;100.00;65374.31;5008901;28;20050;-69
2022/08/23 02:39:17;;;;;;;9.83;6.80;;;;;;;-148.33;100.00;65374.31;5007244;28;20495;-68
2022/08/23 02:41:43;;;;;;;9.18;6.40;;;;;;;-148.33;100.00;65374.31;5009309;28;20044;-68
2022/08/23 02:44:11;;;;;;;9.45;6.60;;;;;;;-148.33;100.00;65374.31;5008632;28;20239;-66
2022/08/23 02:46:38;;;;;;;9.90;6.85;;;;;;;-148.33;100.00;65374.31;5007802;28;22050;-66
2022/08/23 02:49:05;;;;;;;11.77;7.13;;;;;;;-148.33;100.00;65374.31;5008406;28;20037;-65
2022/08/23 02:51:32;;;;;;;10.10;6.77;;;;;;;-148.33;100.00;65374.31;5006790;28;20418;-66
2022/08/23 02:54:00;;;;;;;10.15;7.00;;;;;;;-148.33;100.00;65374.31;5008391;28;20046;-70
2022/08/23 02:56:27;;;;;;;9.40;6.95;;;;;;;-148.33;100.00;65374.31;5008787;28;20068;-66
2022/08/23 02:58:53;;;;;;;10.68;7.13;;;;;;;-148.33;100.00;65374.31;5012561;28;20048;-67
2022/08/23 03:01:24;;;;;;;10.80;7.00;;;;;;;-148.33;100.00;65374.31;5011372;28;20033;-66
2022/08/23 03:03:51;;;;;;;9.60;7.17;;;;;;;-148.33;100.00;65374.31;5012650;28;20056;-67
2022/08/23 03:06:18;;;;;;;11.90;7.30;;;;;;;-148.33;100.00;65374.31;5011487;28;20433;-66
2022/08/23 03:08:55;;;;;;;10.43;7.20;;;;;;;-148.33;100.00;65374.31;5012360;28;20038;-66
2022/08/23 03:11:23;;;;;;;12.10;7.45;;;;;;;-148.33;100.00;65374.31;5011586;28;20048;-66
2022/08/23 03:13:51;;;;;;;11.52;6.80;;;;;;;-148.33;100.00;65374.31;5012212;28;20104;-66
2022/08/23 03:16:18;;;;;;;12.20;7.43;;;;;;;-148.33;100.00;65374.31;5011458;28;20884;-66
2022/08/23 03:18:45;;;;;;;11.50;6.88;;;;;;;-148.33;100.00;65374.31;5012101;28;20038;-66
2022/08/23 03:21:13;;;;;;;13.23;7.50;;;;;;;-148.33;100.00;65374.31;5011533;28;20052;-67
2022/08/23 03:23:40;;;;;;;10.10;7.18;;;;;;;-148.33;100.00;65374.31;5011107;28;20773;-67
2022/08/23 03:26:09;;;;;;;10.95;7.47;;;;;;;-148.33;100.00;65374.31;5011716;28;20589;-69
2022/08/23 03:28:37;;;;;;;12.27;8.00;;;;;;;-148.33;100.00;65374.31;5011055;28;20042;-67
2022/08/23 03:31:05;;;;;;;13.18;8.27;;;;;;;-148.33;100.00;65374.31;5011583;28;20398;-68
2022/08/23 03:33:32;;;;;;;11.43;7.97;;;;;;;-148.33;100.00;65374.31;5011229;28;20052;-66
2022/08/23 03:36:00;;;;;;;13.40;7.97;;;;;;;-148.33;100.00;65374.31;5011683;28;20044;-69
2022/08/23 03:38:27;;;;;;;13.13;7.57;;;;;;;-148.33;100.00;65374.31;5009696;28;20045;-69
2022/08/23 03:40:54;;;;;;;10.93;6.97;;;;;;;-148.33;100.00;65374.31;5012347;28;20049;-66
2022/08/23 03:43:21;;;;;;;10.93;7.40;;;;;;;-148.33;100.00;65374.31;5011307;28;20041;-66
2022/08/23 03:45:48;;;;;;;11.50;8.02;;;;;;;-148.33;100.00;65374.31;5011546;28;20046;-69
2022/08/23 03:48:15;;;;;;;11.65;7.85;;;;;;;-148.33;100.00;65374.31;5010673;28;20074;-68
2022/08/23 03:50:43;;;;;;;11.38;7.63;;;;;;;-148.33;100.00;65374.31;5011255;28;20046;-69
2022/08/23 03:53:10;;;;;;;10.87;7.93;;;;;;;-148.33;100.00;65374.31;5011191;28;20042;-69
2022/08/23 03:55:40;;;;;;;13.18;8.55;;;;;;;-148.33;100.00;65374.31;5010328;28;20918;-66
2022/08/23 03:58:09;;;;;;;14.30;8.13;;;;;;;-148.33;100.00;65374.31;5011000;28;20033;-69
2022/08/23 04:00:36;;;;;;;11.55;7.85;;;;;;;-148.33;100.00;65374.31;5011108;28;20042;-66
2022/08/23 04:03:03;;;;;;;10.90;7.20;;;;;;;-148.33;100.00;65374.31;5011029;28;20034;-70
2022/08/23 04:05:30;;;;;;;12.00;7.97;;;;;;;-148.33;100.00;65374.31;5010937;28;20045;-68
2022/08/23 04:07:57;;;;;;;10.80;6.97;;;;;;;-148.33;100.00;65374.31;5010797;28;20042;-66
2022/08/23 04:10:24;;;;;;;12.05;8.52;;;;;;;-148.33;100.00;65374.31;5008921;28;20461;-70
2022/08/23 04:12:52;;;;;;;14.70;8.52;;;;;;;-148.33;100.00;65374.31;5010890;28;20410;-69
2022/08/23 04:15:19;;;;;;;11.50;8.50;;;;;;;-148.33;100.00;65374.31;5010254;28;20064;-68
2022/08/23 04:17:46;;;;;;;12.70;8.40;;;;;;;-148.33;100.00;65374.31;5010956;28;20048;-70
2022/08/23 04:20:12;;;;;;;12.15;8.25;;;;;;;-148.33;100.00;65374.31;5010255;28;20045;-66
2022/08/23 04:22:39;;;;;;;11.68;8.07;;;;;;;-148.33;100.00;65374.31;5010837;28;20046;-65
2022/08/23 04:25:06;;;;;;;11.23;7.80;;;;;;;-148.33;100.00;65374.31;5041921;28;20064;-66
2022/08/23 04:27:53;;;;;;;12.13;8.00;;;;;;;-148.33;100.00;65374.31;5009508;28;20046;-67
2022/08/23 04:30:20;;;;;;;13.90;8.80;;;;;;;-148.33;100.00;65374.31;5009774;28;20454;-69
2022/08/23 04:32:47;;;;;;;12.30;7.82;;;;;;;-148.33;100.00;65374.31;5010735;28;20038;-69
2022/08/23 04:35:14;;;;;;;13.07;7.80;;;;;;;-148.33;100.00;65374.31;5009937;28;20042;-67
2022/08/23 04:37:41;;;;;;;11.93;8.05;;;;;;;-148.33;100.00;65374.31;5010582;28;20067;-68
2022/08/23 04:42:55;;;;;;;12.17;7.40;;;;;;;-148.33;100.00;65374.31;5010321;28;20803;-65
2022/08/23 04:45:22;;;;;;;11.02;7.72;;;;;;;-148.33;100.00;65374.31;5009589;28;20157;-66
2022/08/23 04:47:49;;;;;;;9.95;7.13;;;;;;;-148.33;100.00;65374.31;5010148;28;20403;-70
2022/08/23 04:50:16;;;;;;;12.65;8.05;;;;;;;-148.33;100.00;65374.31;5009318;28;20434;-67
2022/08/23 04:52:43;;;;;;;12.75;8.40;;;;;;;-148.33;100.00;65374.31;5010370;28;20076;-66
2022/08/23 04:55:11;;;;;;;11.47;8.43;;;;;;;-148.33;100.00;65374.31;5009960;28;20050;-66
2022/08/23 04:57:41;;;;;;;12.23;8.50;;;;;;;-148.33;100.00;65374.31;5009302;28;20380;-67
2022/08/23 05:00:11;;;;;;;11.57;8.63;;;;;;;-148.33;100.00;65374.31;5009786;28;20052;-70
2022/08/23 05:02:38;;;;;;;13.90;9.32;;;;;;;-148.33;100.00;65374.31;5009147;28;20912;-66
2022/08/23 05:05:06;;;;;;;12.32;8.50;;;;;;;-148.33;100.00;65374.31;5010180;28;20067;-72
2022/08/23 05:07:33;;;;;;;13.07;8.57;;;;;;;-148.33;100.00;65374.31;5009601;28;20057;-67
2022/08/23 05:10:12;;;;;;;12.38;8.65;;;;;;;-148.33;100.00;65374.31;5009595;28;20042;-65
2022/08/23 05:12:39;;;;;;;14.15;9.05;;;;;;;-148.33;100.00;65374.31;5009239;28;22298;-67
2022/08/23 05:15:11;;;;;;;12.32;8.27;;;;;;;-148.33;100.00;65374.31;5009548;28;20041;-72
2022/08/23 05:17:38;;;;;;;11.15;7.50;;;;;;;-148.33;100.00;65374.31;5009238;28;20061;-70
2022/08/23 05:20:07;;;;;;;10.10;6.90;;;;;;;-148.33;100.00;65374.31;5009092;28;20041;-67
2022/08/23 05:22:36;;;;;;;14.18;8.40;;;;;;;-148.33;100.00;65374.31;5009272;28;20050;-68
2022/08/23 05:25:03;;;;;;;12.15;8.52;;;;;;;-148.33;100.00;65374.31;5009536;28;20045;-67
2022/08/23 05:27:30;;;;;;;11.07;8.48;;;;;;;-148.33;100.00;65374.31;5008799;28;20087;-66
2022/08/23 05:29:57;;;;;;;13.43;8.75;;;;;;;-148.33;100.00;65374.31;5009177;28;20050;-64
2022/08/23 05:32:24;;;;;;;12.93;8.77;;;;;;;-148.33;100.00;65374.31;5007817;28;20253;-64
2022/08/23 05:34:51;;;;;;;14.30;8.50;;;;;;;-148.33;100.00;65374.31;5007822;28;20107;-67
2022/08/23 05:37:17;;;;;;;13.32;9.20;;;;;;;-148.33;100.00;65374.31;5008727;28;20076;-65
2022/08/23 05:39:44;;;;;;;12.00;8.18;;;;;;;-148.33;100.00;65374.31;5007882;28;20042;-67
2022/08/23 05:42:13;;;;;;;13.20;8.60;;;;;;;-148.33;100.00;65374.31;5003090;28;20108;-66
2022/08/23 05:44:40;;;;;;;13.60;8.73;;;;;;;-148.33;100.00;65374.31;5007467;28;21876;-68
2022/08/23 05:47:11;;;;;;;12.50;9.13;;;;;;;-148.33;100.00;65374.31;5007268;28;20042;-65
2022/08/23 05:49:39;;;;;;;12.80;8.88;;;;;;;-148.33;100.00;65374.31;5008000;28;20046;-66
2022/08/23 05:52:10;;;;;;;12.48;8.70;;;;;;;-148.33;100.00;65374.31;5008947;28;20421;-67
2022/08/23 05:54:38;;;;;;;12.40;9.55;;;;;;;-148.33;100.00;65374.31;5008218;28;20042;-69
2022/08/23 05:57:05;;;;;;;12.77;9.43;;;;;;;-148.33;100.00;65374.31;5008927;28;20052;-67
2022/08/23 05:59:31;;;;;;;11.77;8.60;;;;;;;-148.33;100.00;65374.31;5007954;28;20072;-67
2022/08/23 06:01:58;;;;;;;13.02;8.45;;;;;;;-148.33;100.00;65374.31;5008032;28;20045;-65
2022/08/23 06:04:25;;;;;;;15.60;9.10;;;;;;;-148.33;100.00;65374.31;5006951;28;20053;-65
2022/08/23 06:06:52;;;;;;;11.38;8.45;;;;;;;-148.33;100.00;65374.31;5008690;28;20038;-69
2022/08/23 06:09:19;;;;;;;13.50;8.57;;;;;;;-148.33;100.00;65374.31;5007486;28;20648;-68
2022/08/23 06:11:47;;;;;;;14.23;8.77;;;;;;;-148.33;100.00;65374.31;5007070;28;20490;-70
2022/08/23 06:14:14;;;;;;;11.23;7.80;;;;;;;-148.33;100.00;65374.31;5008699;28;20080;-65
2022/08/23 06:16:45;;;;;;;11.55;8.00;;;;;;;-148.33;100.00;65374.31;5008440;28;20115;-68
2022/08/23 06:19:13;;;;;;;11.48;8.27;;;;;;;-148.33;100.00;65374.31;5008337;28;20408;-65
2022/08/23 06:21:40;;;;;;;10.60;7.97;;;;;;;-148.33;100.00;65374.31;5007985;28;21078;-68
2022/08/23 06:24:08;;;;;;;11.27;8.35;;;;;;;-148.33;100.00;65374.31;5007909;28;20052;-71
2022/08/23 06:26:38;;;;;;;11.60;8.02;;;;;;;-148.33;100.00;65374.31;5008292;28;20046;-67
2022/08/23 06:29:12;;;;;;;15.02;8.40;;;;;;;-148.33;100.00;65374.31;5008535;28;20042;-68
2022/08/23 06:31:44;;;;;;;13.32;7.82;;;;;;;-148.33;100.00;65374.31;5010127;28;20822;-65
2022/08/23 06:34:21;;;;;;;9.17;6.77;;;;;;;-148.33;100.00;65374.31;5012123;28;20046;-71
2022/08/23 06:36:52;;;;;;;10.15;6.03;;;;;;;-148.33;100.00;65374.31;4999620;28;20038;-66
2022/08/23 06:39:22;;;;;;;8.25;6.22;;;;;;;-148.33;100.00;65374.31;5011371;28;20477;-68
2022/08/23 06:41:49;;;;;;;7.90;5.38;;;;;;;-148.33;100.00;65374.31;5012194;28;20388;-67
2022/08/23 06:44:17;;;;;;;6.53;5.30;;;;;;;-148.33;100.00;65374.31;5011593;28;20262;-68
2022/08/23 06:46:46;;;;;;;6.30;5.37;;;;;;;-148.33;100.00;65374.31;5012030;28;20388;-68
2022/08/23 06:49:14;;;;;;;7.60;5.22;;;;;;;-148.33;100.00;65374.31;5011778;28;20397;-68
2022/08/23 06:51:44;;;;;;;7.28;5.35;;;;;;;-148.33;100.00;65374.31;5012426;28;20496;-70
2022/08/23 06:54:14;;;;;;;8.18;5.18;;;;;;;-148.33;100.00;65374.31;5011091;28;20038;-69
2022/08/23 06:56:42;;;;;;;7.00;5.18;;;;;;;-148.33;100.00;65374.31;5011372;28;20176;-66
2022/08/23 06:59:10;;;;;;;8.03;5.37;;;;;;;-148.33;100.00;65374.31;5011718;28;20042;-73
2022/08/23 07:01:51;;;;;;;7.93;5.00;;;;;;;-148.33;100.00;65374.31;5007941;28;20042;-66
2022/08/23 07:04:23;;;;;;;8.15;4.70;;;;;;;-148.33;100.00;65374.31;5010954;28;20048;-65
2022/08/23 07:06:50;;;;;;;6.90;4.70;;;;;;;-148.33;100.00;65374.31;5012383;28;20034;-67
2022/08/23 07:09:17;;;;;;;5.85;4.75;;;;;;;-148.33;100.00;65374.31;5010568;28;20052;-69
2022/08/23 07:11:45;;;;;;;6.93;5.10;;;;;;;-148.33;100.00;65374.31;5014625;28;20050;-69
2022/08/23 07:14:15;;;;;;;6.63;4.90;;;;;;;-148.33;100.00;65374.31;5011629;28;20044;-65
2022/08/23 07:16:54;;;;;;;5.55;4.35;;;;;;;-148.33;100.00;65374.31;5009212;28;21585;-69
2022/08/23 07:19:26;;;;;;;6.03;3.60;;;;;;;-148.33;100.00;65374.31;5011020;28;20041;-67
2022/08/23 07:21:56;;;;;;;7.20;4.18;;;;;;;-148.33;100.00;65374.31;5011590;28;20510;-66
2022/08/23 07:24:24;;;;;;;5.00;3.80;;;;;;;-148.33;100.00;65374.31;5010011;28;20049;-66
2022/08/23 07:26:58;;;;;;;5.47;3.60;;;;;;;-148.33;100.00;65374.31;5011163;28;20042;-70
2022/08/23 07:29:25;;;;;;;4.93;3.58;;;;;;;-148.33;100.00;65374.31;5010844;28;20418;-69
2022/08/23 07:31:54;;;;;;;5.32;3.78;;;;;;;-148.33;100.00;65374.31;5010128;28;20040;-69
2022/08/23 07:34:22;;;;;;;4.40;3.30;;;;;;;-148.33;100.00;65374.31;5009461;28;20442;-69
2022/08/23 07:36:51;;;;;;;5.90;3.30;;;;;;;-148.33;100.00;65374.31;5011882;28;20046;-67
2022/08/23 07:39:21;;;;;;;6.07;3.65;;;;;;;-148.33;100.00;65374.31;5010308;28;20038;-68
2022/08/23 07:41:48;;;;;;;4.20;3.42;;;;;;;-148.33;100.00;65374.31;5010914;28;20517;-69
2022/08/23 07:44:16;;;;;;;5.45;3.55;;;;;;;-148.33;100.00;65374.31;5010271;28;20060;-69
2022/08/23 07:46:45;;;;;;;6.13;3.70;;;;;;;-148.33;100.00;65374.31;5011052;28;20676;-69
2022/08/23 07:49:14;;;;;;;4.63;3.57;;;;;;;-148.33;100.00;65374.31;5011026;28;20049;-68
2022/08/23 07:51:45;;;;;;;5.90;3.30;;;;;;;-148.33;100.00;65374.31;5010329;28;20745;-71
2022/08/23 07:54:13;;;;;;;4.45;3.30;;;;;;;-148.33;100.00;65374.31;5009697;28;20054;-71
2022/08/23 07:56:40;;;;;;;4.40;3.05;;;;;;;-148.33;100.00;65374.31;5001472;28;20744;-68
2022/08/23 07:59:08;;;;;;;5.30;3.20;;;;;;;-148.33;100.00;65374.31;5006038;28;20046;-70
2022/08/23 08:01:36;;;;;;;5.03;3.30;;;;;;;-148.33;100.00;65374.31;5010269;28;20058;-68
2022/08/23 08:04:04;;;;;;;4.80;3.10;;;;;;;-148.33;100.00;65374.31;5005902;28;20113;-70
2022/08/23 08:06:34;;;;;;;6.10;2.90;;;;;;;-148.33;100.00;65374.31;5010136;28;20046;-69
2022/08/23 08:09:02;;;;;;;4.32;2.60;;;;;;;-148.33;100.00;65374.31;5010453;28;20080;-68
2022/08/23 08:11:31;;;;;;;4.07;2.95;;;;;;;-148.33;100.00;65374.31;5009641;28;20064;-66
2022/08/23 08:14:06;;;;;;;4.30;2.90;;;;;;;-148.33;100.00;65374.31;5007505;28;20046;-68
2022/08/23 08:16:41;;;;;;;5.13;3.00;;;;;;;-148.33;100.00;65374.31;5009250;28;20046;-70
2022/08/23 08:19:10;;;;;;;3.92;2.70;;;;;;;-148.33;100.00;65374.31;5009505;28;20093;-68
2022/08/23 08:21:38;;;;;;;5.55;3.13;;;;;;;-148.33;100.00;65374.31;5009756;28;20414;-68
2022/08/23 08:24:11;;;;;;;4.63;2.50;;;;;;;-148.33;100.00;65374.31;5009751;28;20042;-68
2022/08/23 08:26:40;;;;;;;4.60;2.43;;;;;;;-148.33;100.00;65374.31;5009749;28;20052;-68
2022/08/23 08:29:10;;;;;;;6.15;2.60;;;;;;;-148.33;100.00;65374.31;5009282;28;20042;-68
2022/08/23 08:31:40;;;;;;;4.47;2.70;;;;;;;-148.33;100.00;65374.31;5009504;28;20042;-67
2022/08/23 08:34:07;;;;;;;3.55;2.50;;;;;;;-148.33;100.00;65374.31;5010218;28;20041;-69
2022/08/23 08:36:38;;;;;;;4.20;2.50;;;;;;;-148.33;100.00;65374.31;5009571;28;20072;-68
2022/08/23 08:39:09;;;;;;;4.33;2.60;;;;;;;-148.33;100.00;65374.31;5009901;28;20056;-68
2022/08/23 08:41:47;;;;;;;4.22;2.40;;;;;;;-148.33;100.00;65374.31;5009547;28;20053;-68
2022/08/23 08:44:40;;;;;;;3.42;2.20;;;;;;;-148.33;100.00;65374.31;5010010;28;20044;-68
2022/08/23 08:47:18;;;;;;;4.07;2.40;;;;;;;-148.33;100.00;65374.31;5010927;28;20060;-67
2022/08/23 08:50:01;;;;;;;4.00;2.28;;;;;;;-148.33;100.00;65374.31;5009500;28;20686;-68
2022/08/23 08:52:34;;;;;;;3.40;2.30;;;;;;;-148.33;100.00;65374.31;5008988;28;20040;-67
2022/08/23 08:55:10;;;;;;;4.55;2.50;;;;;;;-148.33;100.00;65374.31;5009396;28;20046;-69
2022/08/23 08:57:40;;;;;;;4.47;2.20;;;;;;;-148.33;100.00;65374.31;5009381;28;20133;-71
2022/08/23 09:00:14;;;;;;;4.28;2.40;;;;;;;-148.33;100.00;65374.31;5009738;28;20052;-69
2022/08/23 09:02:41;;;;;;;4.85;2.42;;;;;;;-148.33;100.00;65374.31;5009413;28;20910;-72
2022/08/23 09:05:18;;;;;;;4.50;2.40;;;;;;;-148.33;100.00;65374.31;5010089;28;20076;-71
2022/08/23 09:08:10;;;;;;;6.55;2.50;;;;;;;-148.33;100.00;65374.31;5009168;28;20736;-68
2022/08/23 09:10:51;;;;;;;19.48;2.85;;;;;;;-148.33;100.00;65374.31;5008490;28;20049;-68
2022/08/23 09:13:42;;;;;;;4.75;2.40;;;;;;;-148.33;100.00;65374.31;5009824;28;20483;-65
2022/08/23 09:16:20;;;;;;;4.90;2.42;;;;;;;-148.33;100.00;65374.31;5009427;28;20040;-69
2022/08/23 09:18:48;;;;;;;3.97;2.43;;;;;;;-148.33;100.00;65374.31;5009024;28;20852;-69
2022/08/23 09:21:16;;;;;;;3.92;2.30;;;;;;;-148.33;100.00;65374.31;5009037;28;20045;-68
2022/08/23 09:23:46;;;;;;;4.65;2.85;;;;;;;-148.33;100.00;65374.31;5008515;28;20041;-70
2022/08/23 09:26:21;;;;;;;5.30;2.40;;;;;;;-148.33;100.00;65374.31;5009443;28;20053;-68
2022/08/23 09:28:51;;;;;;;3.80;2.75;;;;;;;-148.33;100.00;65374.31;5003130;28;20648;-71
2022/08/23 09:31:38;;;;;;;4.03;2.70;;;;;;;-148.33;100.00;65374.31;5006223;28;20067;-70
2022/08/23 09:34:07;;;;;;;4.30;2.50;;;;;;;-148.33;100.00;65374.31;5009725;28;20088;-72
2022/08/23 09:36:36;;;;;;;4.15;2.67;;;;;;;-148.33;100.00;65374.31;5008239;28;20072;-71
2022/08/23 09:39:08;;;;;;;4.38;2.70;;;;;;;-148.33;100.00;65374.31;5008845;28;20434;-71
2022/08/23 09:41:40;;;;;;;5.72;2.78;;;;;;;-148.33;100.00;65374.31;5009306;28;20471;-70
2022/08/23 09:44:15;;;;;;;5.37;2.20;;;;;;;-148.33;100.00;65374.31;5007823;28;20038;-72
2022/08/23 09:46:42;;;;;;;5.15;2.40;;;;;;;-148.33;100.00;65374.31;5008133;28;20398;-65
2022/08/23 09:49:29;;;;;;;4.95;2.33;;;;;;;-148.33;100.00;65374.31;5008749;28;20046;-70
2022/08/23 09:52:00;;;;;;;5.22;2.10;;;;;;;-148.33;100.00;65374.31;5007766;28;20642;-69
2022/08/23 09:54:33;;;;;;;4.28;2.30;;;;;;;-148.33;100.00;65374.31;5007992;28;20048;-69
2022/08/23 09:57:04;;;;;;;4.83;2.37;;;;;;;-148.33;100.00;65374.31;5009079;28;20115;-70
2022/08/23 09:59:50;;;;;;;5.18;2.22;;;;;;;-148.33;100.00;65374.31;4994271;28;20072;-70
2022/08/23 10:02:20;;;;;;;4.28;2.10;;;;;;;-148.33;100.00;65374.31;5007905;28;20056;-68
2022/08/23 10:04:52;;;;;;;4.28;2.50;;;;;;;-148.33;100.00;65374.31;5008458;28;20088;-67
2022/08/23 10:07:27;;;;;;;4.38;2.55;;;;;;;-148.33;100.00;65374.31;5007524;28;20056;-69
2022/08/23 10:10:11;;;;;;;4.60;2.40;;;;;;;-148.33;100.00;65374.31;4995990;28;20072;-68
2022/08/23 10:12:38;;;;;;;5.53;2.13;;;;;;;-148.33;100.00;65374.31;5007893;28;20042;-70
2022/08/23 10:15:05;;;;;;;4.18;2.30;;;;;;;-148.33;100.00;65374.31;5008160;28;20395;-70
2022/08/23 10:17:59;;;;;;;3.63;2.22;;;;;;;-148.33;100.00;65374.31;5008319;28;20050;-71
2022/08/23 10:20:35;;;;;;;6.10;2.55;;;;;;;-148.33;100.00;65374.31;5007417;28;20045;-68
2022/08/23 10:23:10;;;;;;;5.40;2.50;;;;;;;-148.33;100.00;65374.31;5005618;28;20067;-71
2022/08/23 10:25:57;;;;;;;4.75;2.30;;;;;;;-148.33;100.00;65374.31;5002314;28;20064;-70
2022/08/23 10:31:24;;;;;;;3.60;2.10;;;;;;;-148.33;100.00;65374.31;5007736;28;20590;-71
2022/08/23 10:34:10;;;;;;;4.93;2.10;;;;;;;-148.33;100.00;65374.31;5008664;28;20038;-71
2022/08/23 10:36:59;;;;;;;3.37;2.10;;;;;;;-148.33;100.00;65374.31;4993869;28;20038;-71
2022/08/23 10:39:28;;;;;;;4.20;2.20;;;;;;;-148.33;100.00;65374.31;5007358;28;20052;-71
2022/08/23 10:42:11;;;;;;;6.57;2.20;;;;;;;-148.33;100.00;65374.31;5007291;28;20046;-72
2022/08/23 10:44:51;;;;;;;5.65;2.13;;;;;;;-148.33;100.00;65374.31;5001505;28;21266;-71
2022/08/23 10:47:41;;;;;;;4.07;2.10;;;;;;;-148.33;100.00;65374.31;5002103;28;20045;-69
2022/08/23 10:50:18;;;;;;;3.77;2.20;;;;;;;-148.33;100.00;65374.31;5002645;28;20046;-71
2022/08/23 10:53:12;;;;;;;4.68;2.30;;;;;;;-148.33;100.00;65374.31;5007667;28;20429;-69
2022/08/23 10:56:01;;;;;;;3.00;2.00;;;;;;;-148.33;100.00;65374.31;5006813;28;20042;-70
2022/08/23 10:58:40;;;;;;;3.97;2.30;;;;;;;-148.33;100.00;65374.31;5005989;28;20046;-70
2022/08/23 11:01:08;;;;;;;3.38;2.30;;;;;;;-148.33;100.00;65374.31;4999152;28;20049;-70
2022/08/23 11:03:50;;;;;;;4.30;2.30;;;;;;;-148.33;100.00;65374.31;5006713;28;20107;-71
2022/08/23 11:06:35;;;;;;;4.50;2.90;;;;;;;-148.33;100.00;65374.31;4995544;28;20054;-71
2022/08/23 11:09:29;;;;;;;3.67;2.42;;;;;;;-148.33;100.00;65374.31;5007601;28;20045;-69
2022/08/23 11:12:01;;;;;;;3.63;2.30;;;;;;;-148.33;100.00;65374.31;5002006;28;20730;-69
2022/08/23 11:14:35;;;;;;;5.07;2.42;;;;;;;-148.33;100.00;65374.31;5001295;28;20186;-69
2022/08/23 11:17:07;;;;;;;5.73;2.60;;;;;;;-148.33;100.00;65374.31;5007050;28;20068;-69
2022/08/23 11:19:51;;;;;;;4.40;2.65;;;;;;;-148.33;100.00;65374.31;5006060;28;20071;-69
2022/08/23 11:22:28;;;;;;;3.85;2.60;;;;;;;-148.33;100.00;65374.31;5009993;28;20053;-69
2022/08/23 11:25:00;;;;;;;4.00;2.70;;;;;;;-148.33;100.00;65374.31;5011377;28;20068;-68
2022/08/23 11:27:33;;;;;;;4.53;2.78;;;;;;;-148.33;100.00;65374.31;5009028;28;20048;-69
2022/08/23 11:30:31;;;;;;;4.63;2.80;;;;;;;-148.33;100.00;65374.31;5007156;28;20475;-68
2022/08/23 11:33:07;;;;;;;5.03;2.80;;;;;;;-148.33;100.00;65374.31;5010006;28;21612;-68
2022/08/23 11:35:43;;;;;;;4.20;2.72;;;;;;;-148.33;100.00;65374.31;5008894;28;20037;-69